sensor_id;sensor_type;location;lat;lon;timestamp;P1;durP1;ratioP1;P2;durP2;ratioP2
71183;SDS011;58887;51.980;4.464;2023-06-24T00:02:12;1.41;;;1.41;;
71183;SDS011;58887;51.980;4.464;2023-06-24T00:04:38;1.30;;;1.30;;
71183;SDS011;58887;51.980;4.464;2023-06-24T00:07:03;1.54;;;1.54;;
71183;SDS011;58887;51.980;4.464;2023-06-24T00:09:29;1.56;;;1.56;;
71183;SDS011;58887;51.980;4.464;2023-06-24T00:11:55;1.58;;;1.58;;
71183;SDS011;58887;51.980;4.464;2023-06-24T00:14:22;1.52;;;1.52;;
71183;SDS011;58887;51.980;4.464;2023-06-24T00:16:51;1.82;;;1.82;;
71183;SDS011;58887;51.980;4.464;2023-06-24T00:19:18;1.73;;;1.73;;
71183;SDS011;58887;51.980;4.464;2023-06-24T00:21:45;1.53;;;1.53;;
71183;SDS011;58887;51.980;4.464;2023-06-24T00:24:12;1.64;;;1.64;;
71183;SDS011;58887;51.980;4.464;2023-06-24T00:26:37;1.99;;;1.99;;
71183;SDS011;58887;51.980;4.464;2023-06-24T00:29:03;1.93;;;1.93;;
71183;SDS011;58887;51.980;4.464;2023-06-24T00:31:28;1.64;;;1.64;;
71183;SDS011;58887;51.980;4.464;2023-06-24T00:33:54;1.58;;;1.58;;
71183;SDS011;58887;51.980;4.464;2023-06-24T00:36:20;1.52;;;1.52;;
71183;SDS011;58887;51.980;4.464;2023-06-24T00:38:45;1.57;;;1.57;;
71183;SDS011;58887;51.980;4.464;2023-06-24T00:41:11;1.65;;;1.65;;
71183;SDS011;58887;51.980;4.464;2023-06-24T00:43:36;1.50;;;1.50;;
71183;SDS011;58887;51.980;4.464;2023-06-24T00:46:04;1.64;;;1.64;;
71183;SDS011;58887;51.980;4.464;2023-06-24T00:48:31;1.68;;;1.68;;
71183;SDS011;58887;51.980;4.464;2023-06-24T00:50:58;1.78;;;1.78;;
71183;SDS011;58887;51.980;4.464;2023-06-24T00:53:23;1.67;;;1.67;;
71183;SDS011;58887;51.980;4.464;2023-06-24T00:55:50;1.60;;;1.60;;
71183;SDS011;58887;51.980;4.464;2023-06-24T00:58:17;1.68;;;1.68;;
71183;SDS011;58887;51.980;4.464;2023-06-24T01:00:46;1.73;;;1.73;;
71183;SDS011;58887;51.980;4.464;2023-06-24T01:03:22;1.88;;;1.88;;
71183;SDS011;58887;51.980;4.464;2023-06-24T01:05:47;1.74;;;1.74;;
71183;SDS011;58887;51.980;4.464;2023-06-24T01:08:13;1.77;;;1.77;;
71183;SDS011;58887;51.980;4.464;2023-06-24T01:10:41;1.75;;;1.75;;
71183;SDS011;58887;51.980;4.464;2023-06-24T01:13:07;1.65;;;1.65;;
71183;SDS011;58887;51.980;4.464;2023-06-24T01:15:33;1.94;;;1.94;;
71183;SDS011;58887;51.980;4.464;2023-06-24T01:21:07;2.04;;;2.04;;
71183;SDS011;58887;51.980;4.464;2023-06-24T01:26:21;1.96;;;1.96;;
71183;SDS011;58887;51.980;4.464;2023-06-24T01:29:34;1.99;;;1.99;;
71183;SDS011;58887;51.980;4.464;2023-06-24T01:32:19;1.94;;;1.94;;
71183;SDS011;58887;51.980;4.464;2023-06-24T01:34:59;1.96;;;1.96;;
71183;SDS011;58887;51.980;4.464;2023-06-24T01:37:39;2.19;;;2.19;;
71183;SDS011;58887;51.980;4.464;2023-06-24T01:40:09;2.24;;;2.24;;
71183;SDS011;58887;51.980;4.464;2023-06-24T01:42:41;1.94;;;1.94;;
71183;SDS011;58887;51.980;4.464;2023-06-24T01:45:10;2.16;;;2.16;;
71183;SDS011;58887;51.980;4.464;2023-06-24T01:47:40;2.17;;;2.17;;
71183;SDS011;58887;51.980;4.464;2023-06-24T01:50:16;2.01;;;2.01;;
71183;SDS011;58887;51.980;4.464;2023-06-24T01:52:46;2.30;;;2.30;;
71183;SDS011;58887;51.980;4.464;2023-06-24T01:55:18;2.12;;;2.12;;
71183;SDS011;58887;51.980;4.464;2023-06-24T01:57:46;2.27;;;2.27;;
71183;SDS011;58887;51.980;4.464;2023-06-24T02:00:14;2.04;;;2.04;;
71183;SDS011;58887;51.980;4.464;2023-06-24T02:02:41;2.11;;;2.11;;
71183;SDS011;58887;51.980;4.464;2023-06-24T02:05:09;1.89;;;1.89;;
71183;SDS011;58887;51.980;4.464;2023-06-24T02:07:36;2.09;;;2.09;;
71183;SDS011;58887;51.980;4.464;2023-06-24T02:10:05;2.03;;;2.03;;
71183;SDS011;58887;51.980;4.464;2023-06-24T02:12:33;1.84;;;1.84;;
71183;SDS011;58887;51.980;4.464;2023-06-24T02:15:01;2.02;;;2.02;;
71183;SDS011;58887;51.980;4.464;2023-06-24T02:17:29;2.03;;;2.03;;
71183;SDS011;58887;51.980;4.464;2023-06-24T02:19:55;1.95;;;1.95;;
71183;SDS011;58887;51.980;4.464;2023-06-24T02:22:22;2.03;;;2.03;;
71183;SDS011;58887;51.980;4.464;2023-06-24T02:24:49;2.09;;;2.09;;
71183;SDS011;58887;51.980;4.464;2023-06-24T02:27:17;2.03;;;2.03;;
71183;SDS011;58887;51.980;4.464;2023-06-24T02:29:43;2.05;;;2.05;;
71183;SDS011;58887;51.980;4.464;2023-06-24T02:32:11;1.92;;;1.92;;
71183;SDS011;58887;51.980;4.464;2023-06-24T02:34:37;1.98;;;1.98;;
71183;SDS011;58887;51.980;4.464;2023-06-24T02:37:04;2.13;;;2.13;;
71183;SDS011;58887;51.980;4.464;2023-06-24T02:39:30;1.91;;;1.91;;
71183;SDS011;58887;51.980;4.464;2023-06-24T02:41:55;2.28;;;2.28;;
71183;SDS011;58887;51.980;4.464;2023-06-24T02:44:21;2.22;;;2.22;;
71183;SDS011;58887;51.980;4.464;2023-06-24T02:46:47;2.02;;;2.02;;
71183;SDS011;58887;51.980;4.464;2023-06-24T02:49:15;2.22;;;2.22;;
71183;SDS011;58887;51.980;4.464;2023-06-24T02:51:43;2.16;;;2.16;;
71183;SDS011;58887;51.980;4.464;2023-06-24T02:54:09;2.05;;;2.05;;
71183;SDS011;58887;51.980;4.464;2023-06-24T02:56:38;2.17;;;2.17;;
71183;SDS011;58887;51.980;4.464;2023-06-24T02:59:09;2.22;;;2.22;;
71183;SDS011;58887;51.980;4.464;2023-06-24T03:01:35;2.50;;;2.50;;
71183;SDS011;58887;51.980;4.464;2023-06-24T03:04:04;2.62;;;2.62;;
71183;SDS011;58887;51.980;4.464;2023-06-24T03:06:30;2.56;;;2.56;;
71183;SDS011;58887;51.980;4.464;2023-06-24T03:08:57;2.74;;;2.74;;
71183;SDS011;58887;51.980;4.464;2023-06-24T03:11:24;2.53;;;2.53;;
71183;SDS011;58887;51.980;4.464;2023-06-24T03:13:51;2.72;;;2.72;;
71183;SDS011;58887;51.980;4.464;2023-06-24T03:16:16;2.73;;;2.73;;
71183;SDS011;58887;51.980;4.464;2023-06-24T03:18:42;2.73;;;2.73;;
71183;SDS011;58887;51.980;4.464;2023-06-24T03:21:08;2.70;;;2.70;;
71183;SDS011;58887;51.980;4.464;2023-06-24T03:23:34;2.31;;;2.31;;
71183;SDS011;58887;51.980;4.464;2023-06-24T03:26:00;2.61;;;2.61;;
71183;SDS011;58887;51.980;4.464;2023-06-24T03:28:25;2.67;;;2.67;;
71183;SDS011;58887;51.980;4.464;2023-06-24T03:30:51;2.68;;;2.68;;
71183;SDS011;58887;51.980;4.464;2023-06-24T03:33:17;2.62;;;2.62;;
71183;SDS011;58887;51.980;4.464;2023-06-24T03:35:44;2.66;;;2.66;;
71183;SDS011;58887;51.980;4.464;2023-06-24T03:38:10;2.59;;;2.59;;
71183;SDS011;58887;51.980;4.464;2023-06-24T03:40:36;2.45;;;2.45;;
71183;SDS011;58887;51.980;4.464;2023-06-24T03:43:02;2.50;;;2.50;;
71183;SDS011;58887;51.980;4.464;2023-06-24T03:45:27;2.40;;;2.40;;
71183;SDS011;58887;51.980;4.464;2023-06-24T03:47:54;2.34;;;2.34;;
71183;SDS011;58887;51.980;4.464;2023-06-24T03:50:19;2.39;;;2.39;;
71183;SDS011;58887;51.980;4.464;2023-06-24T03:52:46;2.47;;;2.47;;
71183;SDS011;58887;51.980;4.464;2023-06-24T03:55:12;2.89;;;2.89;;
71183;SDS011;58887;51.980;4.464;2023-06-24T03:57:39;2.72;;;2.72;;
71183;SDS011;58887;51.980;4.464;2023-06-24T04:00:04;2.73;;;2.73;;
71183;SDS011;58887;51.980;4.464;2023-06-24T04:02:45;2.95;;;2.95;;
71183;SDS011;58887;51.980;4.464;2023-06-24T04:05:11;2.78;;;2.78;;
71183;SDS011;58887;51.980;4.464;2023-06-24T04:07:36;2.97;;;2.97;;
71183;SDS011;58887;51.980;4.464;2023-06-24T04:10:03;2.84;;;2.84;;
71183;SDS011;58887;51.980;4.464;2023-06-24T04:12:33;2.80;;;2.79;;
71183;SDS011;58887;51.980;4.464;2023-06-24T04:15:00;2.88;;;2.87;;
71183;SDS011;58887;51.980;4.464;2023-06-24T04:17:28;3.26;;;3.26;;
71183;SDS011;58887;51.980;4.464;2023-06-24T04:19:54;3.13;;;3.13;;
71183;SDS011;58887;51.980;4.464;2023-06-24T04:22:19;3.39;;;3.39;;
71183;SDS011;58887;51.980;4.464;2023-06-24T04:24:45;3.12;;;3.12;;
71183;SDS011;58887;51.980;4.464;2023-06-24T04:27:10;3.38;;;3.38;;
71183;SDS011;58887;51.980;4.464;2023-06-24T04:29:36;3.51;;;3.51;;
71183;SDS011;58887;51.980;4.464;2023-06-24T04:32:02;3.59;;;3.59;;
71183;SDS011;58887;51.980;4.464;2023-06-24T04:34:27;3.50;;;3.50;;
71183;SDS011;58887;51.980;4.464;2023-06-24T04:36:53;3.24;;;3.24;;
71183;SDS011;58887;51.980;4.464;2023-06-24T04:39:18;3.25;;;3.25;;
71183;SDS011;58887;51.980;4.464;2023-06-24T04:41:44;3.41;;;3.41;;
71183;SDS011;58887;51.980;4.464;2023-06-24T04:44:09;3.33;;;3.33;;
71183;SDS011;58887;51.980;4.464;2023-06-24T04:46:35;3.43;;;3.43;;
71183;SDS011;58887;51.980;4.464;2023-06-24T04:49:00;3.46;;;3.46;;
71183;SDS011;58887;51.980;4.464;2023-06-24T04:51:26;3.77;;;3.77;;
71183;SDS011;58887;51.980;4.464;2023-06-24T04:53:51;3.74;;;3.74;;
71183;SDS011;58887;51.980;4.464;2023-06-24T04:56:16;3.65;;;3.65;;
71183;SDS011;58887;51.980;4.464;2023-06-24T04:58:42;3.77;;;3.77;;
71183;SDS011;58887;51.980;4.464;2023-06-24T05:01:07;3.79;;;3.79;;
71183;SDS011;58887;51.980;4.464;2023-06-24T05:03:33;3.73;;;3.73;;
71183;SDS011;58887;51.980;4.464;2023-06-24T05:05:58;3.49;;;3.49;;
71183;SDS011;58887;51.980;4.464;2023-06-24T05:08:24;3.52;;;3.52;;
71183;SDS011;58887;51.980;4.464;2023-06-24T05:10:49;3.63;;;3.63;;
71183;SDS011;58887;51.980;4.464;2023-06-24T05:13:15;3.88;;;3.88;;
71183;SDS011;58887;51.980;4.464;2023-06-24T05:15:40;3.95;;;3.95;;
71183;SDS011;58887;51.980;4.464;2023-06-24T05:18:06;3.72;;;3.72;;
71183;SDS011;58887;51.980;4.464;2023-06-24T05:20:34;3.79;;;3.79;;
71183;SDS011;58887;51.980;4.464;2023-06-24T05:23:00;6.91;;;6.91;;
71183;SDS011;58887;51.980;4.464;2023-06-24T05:25:25;4.17;;;4.17;;
71183;SDS011;58887;51.980;4.464;2023-06-24T05:27:50;4.08;;;4.08;;
71183;SDS011;58887;51.980;4.464;2023-06-24T05:30:16;4.36;;;4.36;;
71183;SDS011;58887;51.980;4.464;2023-06-24T05:32:42;4.25;;;4.25;;
71183;SDS011;58887;51.980;4.464;2023-06-24T05:35:07;3.96;;;3.96;;
71183;SDS011;58887;51.980;4.464;2023-06-24T05:37:33;4.20;;;4.20;;
71183;SDS011;58887;51.980;4.464;2023-06-24T05:40:00;7.39;;;7.39;;
71183;SDS011;58887;51.980;4.464;2023-06-24T05:42:27;6.92;;;6.92;;
71183;SDS011;58887;51.980;4.464;2023-06-24T05:44:52;4.22;;;4.22;;
71183;SDS011;58887;51.980;4.464;2023-06-24T05:47:18;4.80;;;4.80;;
71183;SDS011;58887;51.980;4.464;2023-06-24T05:49:44;4.26;;;4.26;;
71183;SDS011;58887;51.980;4.464;2023-06-24T05:52:11;4.19;;;4.19;;
71183;SDS011;58887;51.980;4.464;2023-06-24T05:54:37;4.50;;;4.50;;
71183;SDS011;58887;51.980;4.464;2023-06-24T05:57:02;4.63;;;4.63;;
71183;SDS011;58887;51.980;4.464;2023-06-24T05:59:31;5.37;;;5.37;;
71183;SDS011;58887;51.980;4.464;2023-06-24T06:02:02;8.07;;;7.95;;
71183;SDS011;58887;51.980;4.464;2023-06-24T06:04:28;5.15;;;5.10;;
71183;SDS011;58887;51.980;4.464;2023-06-24T06:06:54;4.84;;;4.84;;
71183;SDS011;58887;51.980;4.464;2023-06-24T06:09:19;4.82;;;4.82;;
71183;SDS011;58887;51.980;4.464;2023-06-24T06:11:45;4.46;;;4.46;;
71183;SDS011;58887;51.980;4.464;2023-06-24T06:14:11;4.70;;;4.70;;
71183;SDS011;58887;51.980;4.464;2023-06-24T06:16:36;5.28;;;5.28;;
71183;SDS011;58887;51.980;4.464;2023-06-24T06:19:01;4.96;;;4.96;;
71183;SDS011;58887;51.980;4.464;2023-06-24T06:21:28;5.11;;;5.11;;
71183;SDS011;58887;51.980;4.464;2023-06-24T06:23:53;5.04;;;5.04;;
71183;SDS011;58887;51.980;4.464;2023-06-24T06:26:19;4.83;;;4.83;;
71183;SDS011;58887;51.980;4.464;2023-06-24T06:28:44;5.27;;;5.27;;
71183;SDS011;58887;51.980;4.464;2023-06-24T06:31:12;5.10;;;5.10;;
71183;SDS011;58887;51.980;4.464;2023-06-24T06:33:38;5.10;;;5.10;;
71183;SDS011;58887;51.980;4.464;2023-06-24T06:36:03;4.96;;;4.96;;
71183;SDS011;58887;51.980;4.464;2023-06-24T06:38:29;4.98;;;4.98;;
71183;SDS011;58887;51.980;4.464;2023-06-24T06:40:54;5.43;;;5.43;;
71183;SDS011;58887;51.980;4.464;2023-06-24T06:43:19;4.78;;;4.78;;
71183;SDS011;58887;51.980;4.464;2023-06-24T06:45:46;5.40;;;5.40;;
71183;SDS011;58887;51.980;4.464;2023-06-24T06:48:12;5.01;;;5.01;;
71183;SDS011;58887;51.980;4.464;2023-06-24T06:50:37;5.56;;;5.55;;
71183;SDS011;58887;51.980;4.464;2023-06-24T06:53:03;5.19;;;5.18;;
71183;SDS011;58887;51.980;4.464;2023-06-24T06:55:28;5.41;;;5.37;;
71183;SDS011;58887;51.980;4.464;2023-06-24T06:57:54;5.24;;;5.19;;
71183;SDS011;58887;51.980;4.464;2023-06-24T07:00:20;4.94;;;4.94;;
71183;SDS011;58887;51.980;4.464;2023-06-24T07:02:46;5.17;;;5.17;;
71183;SDS011;58887;51.980;4.464;2023-06-24T07:05:11;4.87;;;4.87;;
71183;SDS011;58887;51.980;4.464;2023-06-24T07:07:37;4.87;;;4.87;;
71183;SDS011;58887;51.980;4.464;2023-06-24T07:10:03;5.00;;;5.00;;
71183;SDS011;58887;51.980;4.464;2023-06-24T07:12:29;4.97;;;4.97;;
71183;SDS011;58887;51.980;4.464;2023-06-24T07:14:56;4.77;;;4.77;;
71183;SDS011;58887;51.980;4.464;2023-06-24T07:17:21;4.91;;;4.91;;
71183;SDS011;58887;51.980;4.464;2023-06-24T07:19:47;5.02;;;5.02;;
71183;SDS011;58887;51.980;4.464;2023-06-24T07:22:13;5.18;;;5.18;;
71183;SDS011;58887;51.980;4.464;2023-06-24T07:24:39;4.98;;;4.98;;
71183;SDS011;58887;51.980;4.464;2023-06-24T07:27:05;5.60;;;5.60;;
71183;SDS011;58887;51.980;4.464;2023-06-24T07:29:30;5.22;;;5.22;;
71183;SDS011;58887;51.980;4.464;2023-06-24T07:31:56;5.61;;;5.61;;
71183;SDS011;58887;51.980;4.464;2023-06-24T07:34:23;4.97;;;4.97;;
71183;SDS011;58887;51.980;4.464;2023-06-24T07:36:48;5.44;;;5.44;;
71183;SDS011;58887;51.980;4.464;2023-06-24T07:39:16;4.92;;;4.92;;
71183;SDS011;58887;51.980;4.464;2023-06-24T07:41:41;5.21;;;5.21;;
71183;SDS011;58887;51.980;4.464;2023-06-24T07:44:07;5.25;;;5.25;;
71183;SDS011;58887;51.980;4.464;2023-06-24T07:46:33;5.36;;;5.36;;
71183;SDS011;58887;51.980;4.464;2023-06-24T07:48:59;5.28;;;5.28;;
71183;SDS011;58887;51.980;4.464;2023-06-24T07:51:24;6.26;;;6.26;;
71183;SDS011;58887;51.980;4.464;2023-06-24T07:53:50;6.19;;;6.19;;
71183;SDS011;58887;51.980;4.464;2023-06-24T07:56:15;4.36;;;4.36;;
71183;SDS011;58887;51.980;4.464;2023-06-24T07:58:40;4.15;;;4.15;;
71183;SDS011;58887;51.980;4.464;2023-06-24T08:01:06;4.29;;;4.29;;
71183;SDS011;58887;51.980;4.464;2023-06-24T08:03:31;4.34;;;4.34;;
71183;SDS011;58887;51.980;4.464;2023-06-24T08:05:57;4.48;;;4.48;;
71183;SDS011;58887;51.980;4.464;2023-06-24T08:08:22;4.42;;;4.42;;
71183;SDS011;58887;51.980;4.464;2023-06-24T08:10:48;4.34;;;4.34;;
71183;SDS011;58887;51.980;4.464;2023-06-24T08:13:13;4.47;;;4.47;;
71183;SDS011;58887;51.980;4.464;2023-06-24T08:15:39;4.83;;;4.83;;
71183;SDS011;58887;51.980;4.464;2023-06-24T08:18:04;4.47;;;4.47;;
71183;SDS011;58887;51.980;4.464;2023-06-24T08:20:30;4.47;;;4.47;;
71183;SDS011;58887;51.980;4.464;2023-06-24T08:22:55;4.59;;;4.59;;
71183;SDS011;58887;51.980;4.464;2023-06-24T08:25:20;4.49;;;4.49;;
71183;SDS011;58887;51.980;4.464;2023-06-24T08:27:46;4.83;;;4.83;;
71183;SDS011;58887;51.980;4.464;2023-06-24T08:30:12;4.29;;;4.29;;
71183;SDS011;58887;51.980;4.464;2023-06-24T08:32:40;4.04;;;4.04;;
71183;SDS011;58887;51.980;4.464;2023-06-24T08:35:06;4.00;;;4.00;;
71183;SDS011;58887;51.980;4.464;2023-06-24T08:37:32;4.27;;;4.27;;
71183;SDS011;58887;51.980;4.464;2023-06-24T08:39:58;4.05;;;4.05;;
71183;SDS011;58887;51.980;4.464;2023-06-24T08:42:23;4.09;;;4.09;;
71183;SDS011;58887;51.980;4.464;2023-06-24T08:44:49;4.13;;;4.13;;
71183;SDS011;58887;51.980;4.464;2023-06-24T08:47:15;4.34;;;4.34;;
71183;SDS011;58887;51.980;4.464;2023-06-24T08:49:46;4.38;;;4.38;;
71183;SDS011;58887;51.980;4.464;2023-06-24T08:52:16;4.06;;;4.06;;
71183;SDS011;58887;51.980;4.464;2023-06-24T08:54:44;4.17;;;4.17;;
71183;SDS011;58887;51.980;4.464;2023-06-24T08:57:12;4.25;;;4.25;;
71183;SDS011;58887;51.980;4.464;2023-06-24T08:59:40;4.47;;;4.47;;
71183;SDS011;58887;51.980;4.464;2023-06-24T09:02:07;4.49;;;4.49;;
71183;SDS011;58887;51.980;4.464;2023-06-24T09:04:32;4.21;;;4.21;;
71183;SDS011;58887;51.980;4.464;2023-06-24T09:06:58;4.32;;;4.32;;
71183;SDS011;58887;51.980;4.464;2023-06-24T09:09:23;4.28;;;4.28;;
71183;SDS011;58887;51.980;4.464;2023-06-24T09:11:59;4.13;;;4.13;;
71183;SDS011;58887;51.980;4.464;2023-06-24T09:14:26;4.09;;;4.09;;
71183;SDS011;58887;51.980;4.464;2023-06-24T09:16:55;4.20;;;4.20;;
71183;SDS011;58887;51.980;4.464;2023-06-24T09:19:23;4.17;;;4.17;;
71183;SDS011;58887;51.980;4.464;2023-06-24T09:21:55;3.84;;;3.84;;
71183;SDS011;58887;51.980;4.464;2023-06-24T09:24:27;4.09;;;4.09;;
71183;SDS011;58887;51.980;4.464;2023-06-24T09:26:55;3.63;;;3.63;;
71183;SDS011;58887;51.980;4.464;2023-06-24T09:29:22;3.97;;;3.97;;
71183;SDS011;58887;51.980;4.464;2023-06-24T09:31:54;3.68;;;3.68;;
71183;SDS011;58887;51.980;4.464;2023-06-24T09:34:22;3.75;;;3.75;;
71183;SDS011;58887;51.980;4.464;2023-06-24T09:36:51;4.04;;;4.04;;
71183;SDS011;58887;51.980;4.464;2023-06-24T09:39:18;4.19;;;4.19;;
71183;SDS011;58887;51.980;4.464;2023-06-24T09:41:50;3.96;;;3.96;;
71183;SDS011;58887;51.980;4.464;2023-06-24T09:44:16;3.73;;;3.73;;
71183;SDS011;58887;51.980;4.464;2023-06-24T09:46:44;3.94;;;3.94;;
71183;SDS011;58887;51.980;4.464;2023-06-24T09:49:10;4.12;;;4.12;;
71183;SDS011;58887;51.980;4.464;2023-06-24T09:51:39;3.71;;;3.71;;
71183;SDS011;58887;51.980;4.464;2023-06-24T09:54:10;3.97;;;3.97;;
71183;SDS011;58887;51.980;4.464;2023-06-24T09:56:37;4.30;;;4.30;;
71183;SDS011;58887;51.980;4.464;2023-06-24T09:59:09;4.53;;;4.53;;
71183;SDS011;58887;51.980;4.464;2023-06-24T10:01:41;4.52;;;4.52;;
71183;SDS011;58887;51.980;4.464;2023-06-24T10:04:09;3.81;;;3.81;;
71183;SDS011;58887;51.980;4.464;2023-06-24T10:06:40;4.14;;;4.14;;
71183;SDS011;58887;51.980;4.464;2023-06-24T10:09:06;4.30;;;4.30;;
71183;SDS011;58887;51.980;4.464;2023-06-24T10:11:31;3.81;;;3.81;;
71183;SDS011;58887;51.980;4.464;2023-06-24T10:13:57;3.83;;;3.83;;
71183;SDS011;58887;51.980;4.464;2023-06-24T10:16:22;4.57;;;4.57;;
71183;SDS011;58887;51.980;4.464;2023-06-24T10:18:48;4.04;;;4.04;;
71183;SDS011;58887;51.980;4.464;2023-06-24T10:21:14;3.60;;;3.60;;
71183;SDS011;58887;51.980;4.464;2023-06-24T10:26:25;4.21;;;4.21;;
71183;SDS011;58887;51.980;4.464;2023-06-24T10:36:58;3.90;;;3.90;;
71183;SDS011;58887;51.980;4.464;2023-06-24T10:47:40;4.00;;;4.00;;
71183;SDS011;58887;51.980;4.464;2023-06-24T10:50:09;3.76;;;3.76;;
71183;SDS011;58887;51.980;4.464;2023-06-24T10:52:46;4.04;;;4.04;;
71183;SDS011;58887;51.980;4.464;2023-06-24T10:55:13;3.55;;;3.55;;
71183;SDS011;58887;51.980;4.464;2023-06-24T10:57:43;3.75;;;3.75;;
71183;SDS011;58887;51.980;4.464;2023-06-24T11:00:10;3.57;;;3.57;;
71183;SDS011;58887;51.980;4.464;2023-06-24T11:02:36;3.49;;;3.49;;
71183;SDS011;58887;51.980;4.464;2023-06-24T11:05:02;3.71;;;3.71;;
71183;SDS011;58887;51.980;4.464;2023-06-24T11:07:31;3.82;;;3.82;;
71183;SDS011;58887;51.980;4.464;2023-06-24T11:12:32;3.70;;;3.70;;
71183;SDS011;58887;51.980;4.464;2023-06-24T11:15:00;3.25;;;3.25;;
71183;SDS011;58887;51.980;4.464;2023-06-24T11:17:27;3.15;;;3.15;;
71183;SDS011;58887;51.980;4.464;2023-06-24T11:19:54;3.37;;;3.37;;
71183;SDS011;58887;51.980;4.464;2023-06-24T11:22:21;3.76;;;3.76;;
71183;SDS011;58887;51.980;4.464;2023-06-24T11:24:47;3.35;;;3.35;;
71183;SDS011;58887;51.980;4.464;2023-06-24T11:27:12;3.14;;;3.14;;
71183;SDS011;58887;51.980;4.464;2023-06-24T11:29:38;3.25;;;3.25;;
71183;SDS011;58887;51.980;4.464;2023-06-24T11:32:06;2.97;;;2.97;;
71183;SDS011;58887;51.980;4.464;2023-06-24T11:34:33;2.88;;;2.88;;
71183;SDS011;58887;51.980;4.464;2023-06-24T11:37:11;3.14;;;3.14;;
71183;SDS011;58887;51.980;4.464;2023-06-24T11:39:37;3.22;;;3.22;;
71183;SDS011;58887;51.980;4.464;2023-06-24T11:42:05;2.95;;;2.95;;
71183;SDS011;58887;51.980;4.464;2023-06-24T11:44:32;3.05;;;3.05;;
71183;SDS011;58887;51.980;4.464;2023-06-24T11:47:04;3.12;;;3.12;;
71183;SDS011;58887;51.980;4.464;2023-06-24T11:49:31;3.16;;;3.16;;
71183;SDS011;58887;51.980;4.464;2023-06-24T11:52:19;3.20;;;3.20;;
71183;SDS011;58887;51.980;4.464;2023-06-24T11:54:52;3.33;;;3.33;;
71183;SDS011;58887;51.980;4.464;2023-06-24T11:57:17;3.52;;;3.52;;
71183;SDS011;58887;51.980;4.464;2023-06-24T11:59:43;3.67;;;3.67;;
71183;SDS011;58887;51.980;4.464;2023-06-24T12:02:12;3.33;;;3.33;;
71183;SDS011;58887;51.980;4.464;2023-06-24T12:04:39;3.16;;;3.16;;
71183;SDS011;58887;51.980;4.464;2023-06-24T12:07:09;3.72;;;3.72;;
71183;SDS011;58887;51.980;4.464;2023-06-24T12:09:34;3.73;;;3.73;;
71183;SDS011;58887;51.980;4.464;2023-06-24T12:12:03;3.37;;;3.37;;
71183;SDS011;58887;51.980;4.464;2023-06-24T12:14:29;3.41;;;3.41;;
71183;SDS011;58887;51.980;4.464;2023-06-24T12:16:54;3.55;;;3.55;;
71183;SDS011;58887;51.980;4.464;2023-06-24T12:19:22;3.62;;;3.62;;
71183;SDS011;58887;51.980;4.464;2023-06-24T12:21:47;3.51;;;3.51;;
71183;SDS011;58887;51.980;4.464;2023-06-24T12:24:14;3.55;;;3.55;;
71183;SDS011;58887;51.980;4.464;2023-06-24T12:26:39;3.41;;;3.41;;
71183;SDS011;58887;51.980;4.464;2023-06-24T12:29:05;3.78;;;3.78;;
71183;SDS011;58887;51.980;4.464;2023-06-24T12:31:30;4.09;;;4.09;;
71183;SDS011;58887;51.980;4.464;2023-06-24T12:33:56;3.78;;;3.78;;
71183;SDS011;58887;51.980;4.464;2023-06-24T12:36:21;3.75;;;3.75;;
71183;SDS011;58887;51.980;4.464;2023-06-24T12:38:48;4.00;;;4.00;;
71183;SDS011;58887;51.980;4.464;2023-06-24T12:41:14;4.35;;;4.35;;
71183;SDS011;58887;51.980;4.464;2023-06-24T12:43:39;4.44;;;4.44;;
71183;SDS011;58887;51.980;4.464;2023-06-24T12:46:05;4.30;;;4.30;;
71183;SDS011;58887;51.980;4.464;2023-06-24T12:48:30;4.56;;;4.56;;
71183;SDS011;58887;51.980;4.464;2023-06-24T12:50:57;4.49;;;4.49;;
71183;SDS011;58887;51.980;4.464;2023-06-24T12:53:22;4.75;;;4.75;;
71183;SDS011;58887;51.980;4.464;2023-06-24T12:55:48;4.57;;;4.57;;
71183;SDS011;58887;51.980;4.464;2023-06-24T12:58:13;4.91;;;4.91;;
71183;SDS011;58887;51.980;4.464;2023-06-24T13:00:40;4.84;;;4.84;;
71183;SDS011;58887;51.980;4.464;2023-06-24T13:03:05;4.36;;;4.36;;
71183;SDS011;58887;51.980;4.464;2023-06-24T13:05:31;4.56;;;4.56;;
71183;SDS011;58887;51.980;4.464;2023-06-24T13:07:56;4.63;;;4.63;;
71183;SDS011;58887;51.980;4.464;2023-06-24T13:10:22;4.58;;;4.58;;
71183;SDS011;58887;51.980;4.464;2023-06-24T13:12:48;4.45;;;4.45;;
71183;SDS011;58887;51.980;4.464;2023-06-24T13:15:13;4.43;;;4.43;;
71183;SDS011;58887;51.980;4.464;2023-06-24T13:17:39;4.21;;;4.21;;
71183;SDS011;58887;51.980;4.464;2023-06-24T13:20:05;3.85;;;3.85;;
71183;SDS011;58887;51.980;4.464;2023-06-24T13:22:31;3.41;;;3.41;;
71183;SDS011;58887;51.980;4.464;2023-06-24T13:24:56;3.17;;;3.17;;
71183;SDS011;58887;51.980;4.464;2023-06-24T13:27:22;3.82;;;3.82;;
71183;SDS011;58887;51.980;4.464;2023-06-24T13:29:47;3.88;;;3.88;;
71183;SDS011;58887;51.980;4.464;2023-06-24T13:32:13;3.97;;;3.97;;
71183;SDS011;58887;51.980;4.464;2023-06-24T13:34:38;4.06;;;4.06;;
71183;SDS011;58887;51.980;4.464;2023-06-24T13:37:04;4.26;;;4.26;;
71183;SDS011;58887;51.980;4.464;2023-06-24T13:39:30;3.73;;;3.73;;
71183;SDS011;58887;51.980;4.464;2023-06-24T13:41:56;3.79;;;3.79;;
71183;SDS011;58887;51.980;4.464;2023-06-24T13:44:22;3.88;;;3.88;;
71183;SDS011;58887;51.980;4.464;2023-06-24T13:46:48;3.69;;;3.69;;
71183;SDS011;58887;51.980;4.464;2023-06-24T13:49:15;3.97;;;3.97;;
71183;SDS011;58887;51.980;4.464;2023-06-24T13:51:41;3.68;;;3.68;;
71183;SDS011;58887;51.980;4.464;2023-06-24T13:54:07;3.88;;;3.88;;
71183;SDS011;58887;51.980;4.464;2023-06-24T13:56:33;4.23;;;4.23;;
71183;SDS011;58887;51.980;4.464;2023-06-24T13:58:58;4.23;;;4.23;;
71183;SDS011;58887;51.980;4.464;2023-06-24T14:01:24;4.46;;;4.46;;
71183;SDS011;58887;51.980;4.464;2023-06-24T14:03:49;3.75;;;3.75;;
71183;SDS011;58887;51.980;4.464;2023-06-24T14:06:16;3.81;;;3.81;;
71183;SDS011;58887;51.980;4.464;2023-06-24T14:08:42;4.29;;;4.29;;
71183;SDS011;58887;51.980;4.464;2023-06-24T14:11:09;4.47;;;4.47;;
71183;SDS011;58887;51.980;4.464;2023-06-24T14:13:34;4.54;;;4.54;;
71183;SDS011;58887;51.980;4.464;2023-06-24T14:16:01;4.23;;;4.23;;
71183;SDS011;58887;51.980;4.464;2023-06-24T14:18:27;4.42;;;4.42;;
71183;SDS011;58887;51.980;4.464;2023-06-24T14:20:53;3.71;;;3.71;;
71183;SDS011;58887;51.980;4.464;2023-06-24T14:23:18;3.77;;;3.77;;
71183;SDS011;58887;51.980;4.464;2023-06-24T14:25:44;3.62;;;3.62;;
71183;SDS011;58887;51.980;4.464;2023-06-24T14:28:09;3.94;;;3.94;;
71183;SDS011;58887;51.980;4.464;2023-06-24T14:30:35;3.84;;;3.84;;
71183;SDS011;58887;51.980;4.464;2023-06-24T14:33:01;3.76;;;3.76;;
71183;SDS011;58887;51.980;4.464;2023-06-24T14:35:26;3.58;;;3.58;;
71183;SDS011;58887;51.980;4.464;2023-06-24T14:37:52;3.80;;;3.80;;
71183;SDS011;58887;51.980;4.464;2023-06-24T14:40:17;3.54;;;3.54;;
71183;SDS011;58887;51.980;4.464;2023-06-24T14:42:43;3.31;;;3.31;;
71183;SDS011;58887;51.980;4.464;2023-06-24T14:45:08;3.43;;;3.43;;
71183;SDS011;58887;51.980;4.464;2023-06-24T14:47:34;3.11;;;3.11;;
71183;SDS011;58887;51.980;4.464;2023-06-24T14:50:00;3.58;;;3.58;;
71183;SDS011;58887;51.980;4.464;2023-06-24T14:52:25;3.31;;;3.31;;
71183;SDS011;58887;51.980;4.464;2023-06-24T14:54:51;3.66;;;3.66;;
71183;SDS011;58887;51.980;4.464;2023-06-24T14:57:16;3.31;;;3.31;;
71183;SDS011;58887;51.980;4.464;2023-06-24T14:59:42;3.05;;;3.05;;
71183;SDS011;58887;51.980;4.464;2023-06-24T15:02:07;3.32;;;3.32;;
71183;SDS011;58887;51.980;4.464;2023-06-24T15:04:33;3.48;;;3.48;;
71183;SDS011;58887;51.980;4.464;2023-06-24T15:07:00;3.31;;;3.31;;
71183;SDS011;58887;51.980;4.464;2023-06-24T15:09:25;3.37;;;3.37;;
71183;SDS011;58887;51.980;4.464;2023-06-24T15:11:51;4.24;;;4.24;;
71183;SDS011;58887;51.980;4.464;2023-06-24T15:14:16;5.01;;;5.01;;